Time;durP1;ratioP1;P1;durP2;ratioP2;P2;SDS_P1;SDS_P2;PMS_P1;PMS_P2;Temp;Humidity;BMP_temperature;BMP_pressure;BME280_temperature;BME280_humidity;BME280_pressure;Samples;Min_cycle;Max_cycle;Signal;HPM_P1;HPM_P2
2021/06/14 00:01:54;;;;;;;4.82;2.65;;;15.60;98.80;;;;;;5022653;28;20022;-47
2021/06/14 00:04:20;;;;;;;6.00;2.65;;;15.70;98.70;;;;;;5030144;28;20033;-47
2021/06/14 00:06:45;;;;;;;7.13;2.83;;;15.70;98.70;;;;;;5035689;28;20392;-47
2021/06/14 00:09:14;;;;;;;8.57;3.33;;;15.70;98.70;;;;;;5033093;28;20041;-47
2021/06/14 00:11:40;;;;;;;4.93;2.60;;;15.70;98.90;;;;;;5032365;28;20057;-46
2021/06/14 00:14:06;;;;;;;8.30;3.10;;;;;;;;;;4989170;28;20072;-47
2021/06/14 00:16:35;;;;;;;5.38;2.75;;;15.70;99.90;;;;;;5023893;28;20029;-47
2021/06/14 00:19:03;;;;;;;8.23;2.88;;;15.70;99.90;;;;;;5025294;28;20500;-47
2021/06/14 00:21:29;;;;;;;11.13;3.38;;;15.70;99.90;;;;;;5026018;28;20388;-47
2021/06/14 00:23:54;;;;;;;5.82;2.92;;;15.70;99.90;;;;;;5005855;28;20030;-47
2021/06/14 00:26:20;;;;;;;4.70;2.50;;;15.80;99.90;;;;;;5024700;28;20033;-47
2021/06/14 00:28:46;;;;;;;3.83;2.60;;;15.80;99.90;;;;;;5010236;28;20046;-47
2021/06/14 00:31:12;;;;;;;10.07;3.15;;;15.80;99.90;;;;;;5016255;28;20033;-47
2021/06/14 00:33:39;;;;;;;6.22;2.67;;;15.80;99.90;;;;;;5016745;28;20116;-46
2021/06/14 00:36:06;;;;;;;6.82;2.78;;;15.80;99.90;;;;;;5035418;28;20073;-47
2021/06/14 00:38:32;;;;;;;6.68;2.90;;;15.70;99.90;;;;;;5033739;28;20025;-47
2021/06/14 00:40:58;;;;;;;5.50;2.95;;;15.70;99.90;;;;;;5035219;28;20033;-47
2021/06/14 00:43:24;;;;;;;5.82;3.10;;;15.70;99.90;;;;;;5033063;28;20033;-47
2021/06/14 00:45:51;;;;;;;4.80;3.05;;;15.70;99.90;;;;;;5034915;28;20041;-46
2021/06/14 00:48:17;;;;;;;5.22;3.00;;;15.70;99.90;;;;;;5034992;28;20075;-46
2021/06/14 00:50:55;;;;;;;5.50;3.00;;;15.70;99.90;;;;;;5032977;28;20100;-48
2021/06/14 00:53:30;;;;;;;6.55;3.03;;;15.70;99.60;;;;;;5034985;28;20053;-47
2021/06/14 00:55:57;;;;;;;10.10;3.33;;;15.70;99.50;;;;;;5032896;28;20034;-46
2021/06/14 00:58:24;;;;;;;6.30;2.83;;;15.70;99.50;;;;;;5032893;28;20083;-47
2021/06/14 01:00:50;;;;;;;7.95;3.75;;;15.80;99.50;;;;;;5034786;28;20057;-47
2021/06/14 01:03:16;;;;;;;3.92;2.40;;;15.80;99.40;;;;;;4983495;28;20084;-47
2021/06/14 01:05:58;;;;;;;5.18;2.65;;;15.70;99.50;;;;;;5034610;28;20060;-47
2021/06/14 01:08:25;;;;;;;6.40;2.85;;;15.70;99.50;;;;;;5034598;28;20037;-48
2021/06/14 01:10:51;;;;;;;6.90;2.83;;;15.70;99.70;;;;;;5034723;28;20489;-47
2021/06/14 01:13:41;;;;;;;3.15;1.90;;;15.60;99.60;;;;;;5034605;28;20029;-47
2021/06/14 01:16:42;;;;;;;6.15;2.55;;;15.60;99.50;;;;;;5034625;28;20033;-47
2021/06/14 01:19:35;;;;;;;6.35;2.50;;;15.50;99.70;;;;;;4992302;28;20043;-47
2021/06/14 01:22:09;;;;;;;;;;;15.50;99.90;;;;;;4990402;28;20031;-47
2021/06/14 01:24:38;;;;;;;5.63;2.20;;;15.70;99.90;;;;;;4992543;28;20371;-48
2021/06/14 01:27:19;;;;;;;3.50;2.15;;;15.70;99.90;;;;;;4992622;28;20113;-47
2021/06/14 01:29:45;;;;;;;6.88;2.40;;;15.60;99.90;;;;;;4976254;28;20430;-47
2021/06/14 01:32:11;;;;;;;3.95;2.30;;;15.70;99.90;;;;;;4992542;28;20121;-47
2021/06/14 01:34:40;;;;;;;4.05;2.15;;;15.70;99.90;;;;;;4992551;28;20052;-47
2021/06/14 01:37:07;;;;;;;4.55;2.35;;;15.70;99.90;;;;;;4991894;28;20043;-47
2021/06/14 01:39:37;;;;;;;4.97;2.40;;;15.70;99.90;;;;;;4992648;28;20061;-47
2021/06/14 01:42:05;;;;;;;3.60;2.90;;;15.60;99.90;;;;;;4975953;28;20586;-47
2021/06/14 01:44:32;;;;;;;7.53;2.80;;;15.50;99.90;;;;;;4975175;28;20046;-47
2021/06/14 01:47:01;;;;;;;6.00;2.35;;;15.40;99.90;;;;;;4992391;28;20486;-47
2021/06/14 01:49:27;;;;;;;5.72;2.33;;;15.50;99.90;;;;;;4992341;28;20042;-47
2021/06/14 01:51:54;;;;;;;10.18;2.35;;;15.50;99.90;;;;;;4959872;28;20042;-47
2021/06/14 01:54:20;;;;;;;5.72;2.22;;;15.40;99.90;;;;;;4992309;28;20089;-47
2021/06/14 01:56:51;;;;;;;4.93;2.15;;;15.50;99.90;;;;;;5022175;28;20038;-47
2021/06/14 01:59:25;;;;;;;3.33;2.28;;;15.50;99.90;;;;;;5034176;28;20079;-47
2021/06/14 02:01:54;;;;;;;6.43;2.10;;;15.50;99.90;;;;;;5034010;28;20032;-47
2021/06/14 02:04:20;;;;;;;5.53;2.92;;;15.50;99.90;;;;;;5031693;28;20522;-47
2021/06/14 02:06:48;;;;;;;6.15;2.17;;;15.50;99.90;;;;;;5033603;28;20037;-47
2021/06/14 02:09:17;;;;;;;4.35;2.20;;;15.50;99.90;;;;;;5031759;28;20068;-47
2021/06/14 02:11:49;;;;;;;5.72;2.42;;;15.50;99.90;;;;;;5033612;28;20029;-47
2021/06/14 02:14:19;;;;;;;4.85;2.30;;;15.40;99.90;;;;;;5033317;28;20124;-47
2021/06/14 02:16:47;;;;;;;4.60;2.60;;;15.40;99.90;;;;;;5032186;28;20099;-47
2021/06/14 02:19:13;;;;;;;5.03;2.10;;;15.40;99.90;;;;;;5033596;28;20443;-48
2021/06/14 02:21:43;;;;;;;4.65;2.33;;;15.30;99.90;;;;;;5031394;28;20037;-47
2021/06/14 02:24:10;;;;;;;4.68;1.98;;;15.30;99.90;;;;;;5033372;28;20461;-47
2021/06/14 02:26:38;;;;;;;4.28;2.33;;;15.30;99.90;;;;;;5033473;28;20068;-48
2021/06/14 02:29:04;;;;;;;4.03;2.15;;;15.30;99.90;;;;;;5011590;28;20084;-47
2021/06/14 02:31:31;;;;;;;9.20;2.83;;;15.20;99.90;;;;;;4978578;28;20042;-47
2021/06/14 02:33:57;;;;;;;5.72;2.53;;;15.30;99.90;;;;;;5011351;28;20104;-47
2021/06/14 02:36:24;;;;;;;4.97;2.20;;;15.40;99.90;;;;;;5011474;28;20025;-47
2021/06/14 02:38:50;;;;;;;8.23;2.30;;;15.40;99.90;;;;;;4994016;28;20069;-47
2021/06/14 02:41:17;;;;;;;3.92;2.03;;;15.40;99.90;;;;;;5001358;28;20557;-47
2021/06/14 02:43:44;;;;;;;5.20;2.15;;;15.40;99.90;;;;;;4991868;28;20081;-46
2021/06/14 02:46:11;;;;;;;6.43;2.25;;;15.10;99.90;;;;;;4991566;28;20034;-46
2021/06/14 02:48:41;;;;;;;5.75;2.22;;;15.00;99.90;;;;;;4991846;28;20039;-47
2021/06/14 02:51:08;;;;;;;5.55;2.40;;;;;;;;;;4977840;28;20046;-47
2021/06/14 02:53:35;;;;;;;6.50;2.72;;;15.00;99.90;;;;;;4975160;28;20069;-48
2021/06/14 02:56:06;;;;;;;6.00;2.08;;;14.80;99.90;;;;;;4978786;28;20038;-47
2021/06/14 02:58:35;;;;;;;4.65;2.83;;;14.80;99.90;;;;;;4995422;28;20030;-48
2021/06/14 03:01:03;;;;;;;6.50;2.40;;;14.80;99.90;;;;;;5014824;28;20034;-47
2021/06/14 03:03:29;;;;;;;5.50;2.58;;;14.70;99.90;;;;;;5017166;28;20032;-47
2021/06/14 03:05:55;;;;;;;5.65;2.55;;;14.80;99.90;;;;;;4998762;28;20038;-47
2021/06/14 03:08:21;;;;;;;5.40;2.38;;;14.80;99.90;;;;;;5014965;28;20029;-48
2021/06/14 03:10:48;;;;;;;3.75;2.10;;;14.80;99.90;;;;;;5017213;28;20025;-47
2021/06/14 03:13:15;;;;;;;5.50;2.40;;;14.60;99.90;;;;;;5017256;28;20484;-47
2021/06/14 03:15:42;;;;;;;5.22;2.40;;;14.60;99.90;;;;;;5016746;28;20085;-47
2021/06/14 03:18:09;;;;;;;5.28;3.03;;;14.50;99.90;;;;;;4998686;28;20095;-47
2021/06/14 03:20:35;;;;;;;7.05;3.03;;;14.40;99.90;;;;;;5016990;28;20053;-47
2021/06/14 03:23:01;;;;;;;6.10;2.30;;;14.50;99.90;;;;;;5015035;28;20462;-50
2021/06/14 03:25:27;;;;;;;6.55;2.60;;;14.50;99.90;;;;;;5016791;28;20025;-47
2021/06/14 03:27:54;;;;;;;3.72;2.60;;;14.50;99.90;;;;;;4998644;28;20038;-47
2021/06/14 03:30:21;;;;;;;4.88;2.47;;;14.60;99.90;;;;;;5016794;28;20025;-47
2021/06/14 03:32:49;;;;;;;3.72;2.05;;;14.60;99.90;;;;;;5016965;28;20107;-47
2021/06/14 03:35:18;;;;;;;6.40;2.10;;;14.60;99.90;;;;;;4981897;28;20176;-47
2021/06/14 03:37:45;;;;;;;6.95;2.78;;;14.50;99.90;;;;;;5016144;28;20029;-48
2021/06/14 03:40:12;;;;;;;4.97;1.83;;;14.40;99.90;;;;;;4998015;28;20073;-47
2021/06/14 03:42:38;;;;;;;4.88;2.20;;;14.40;99.90;;;;;;4981668;28;20164;-47
2021/06/14 03:45:06;;;;;;;7.43;2.40;;;14.50;99.90;;;;;;5016389;28;20029;-47
2021/06/14 03:47:32;;;;;;;8.75;2.80;;;14.60;99.90;;;;;;4998199;28;20073;-47
2021/06/14 03:49:58;;;;;;;8.38;2.25;;;14.60;99.90;;;;;;5014507;28;20135;-47
2021/06/14 03:52:24;;;;;;;7.38;2.60;;;14.60;99.90;;;;;;4981333;28;20132;-48
2021/06/14 03:54:49;;;;;;;6.30;3.22;;;14.50;99.90;;;;;;4998028;28;20351;-47
2021/06/14 03:57:16;;;;;;;4.13;2.42;;;14.60;99.90;;;;;;5016222;28;20366;-48
2021/06/14 03:59:42;;;;;;;5.82;2.75;;;14.60;99.90;;;;;;5016277;28;20053;-48
2021/06/14 04:02:07;;;;;;;6.93;2.58;;;14.50;99.90;;;;;;5027480;28;20519;-48
2021/06/14 04:04:52;;;;;;;5.63;3.28;;;14.70;99.90;;;;;;5035999;28;20354;-48
2021/06/14 04:07:18;;;;;;;7.85;2.22;;;14.70;99.90;;;;;;5034656;28;20153;-48
2021/06/14 04:09:44;;;;;;;7.63;2.72;;;14.60;99.90;;;;;;5035828;28;20647;-48
2021/06/14 04:12:10;;;;;;;4.10;2.40;;;14.50;99.90;;;;;;5035669;28;20033;-48
2021/06/14 04:14:38;;;;;;;5.82;2.47;;;14.50;99.90;;;;;;5035555;28;20080;-48
2021/06/14 04:17:05;;;;;;;3.42;1.90;;;14.50;99.90;;;;;;5035703;28;20420;-48
2021/06/14 04:19:31;;;;;;;4.03;2.50;;;14.30;99.90;;;;;;5017236;28;20033;-48
2021/06/14 04:21:57;;;;;;;5.28;2.35;;;14.50;99.90;;;;;;4983795;28;20034;-48
2021/06/14 04:24:24;;;;;;;4.85;2.30;;;14.40;99.90;;;;;;5027039;28;20065;-48
2021/06/14 04:26:49;;;;;;;5.57;2.63;;;14.60;99.90;;;;;;5025654;28;20077;-48
2021/06/14 04:29:15;;;;;;;4.47;1.80;;;14.60;99.90;;;;;;5022352;28;20030;-48
2021/06/14 04:31:41;;;;;;;3.05;2.03;;;14.50;99.90;;;;;;5027663;28;20037;-47
2021/06/14 04:34:07;;;;;;;5.35;2.53;;;14.60;99.90;;;;;;5035170;28;20033;-48
2021/06/14 04:36:33;;;;;;;5.22;2.30;;;14.60;99.90;;;;;;5035199;28;20365;-48
2021/06/14 04:39:00;;;;;;;6.10;2.55;;;14.60;99.90;;;;;;5034739;28;20104;-48
2021/06/14 04:41:26;;;;;;;6.15;2.30;;;14.60;99.90;;;;;;5034719;28;20037;-47
2021/06/14 04:43:52;;;;;;;6.57;2.08;;;14.70;99.90;;;;;;5034823;28;20480;-48
2021/06/14 04:46:18;;;;;;;4.18;2.30;;;14.60;99.90;;;;;;5034563;28;20029;-48
2021/06/14 04:48:43;;;;;;;4.13;2.10;;;14.60;99.90;;;;;;5032615;28;20544;-48
2021/06/14 04:51:09;;;;;;;6.03;2.05;;;14.70;99.90;;;;;;5019546;28;20041;-47
2021/06/14 04:53:36;;;;;;;5.70;2.28;;;14.80;99.90;;;;;;5020760;28;20037;-48
2021/06/14 04:56:02;;;;;;;8.25;2.40;;;14.90;99.90;;;;;;5023373;28;20079;-47
2021/06/14 04:58:28;;;;;;;4.75;2.10;;;15.00;99.90;;;;;;4983160;28;20037;-48
2021/06/14 05:00:54;;;;;;;5.78;2.20;;;14.70;99.90;;;;;;5032720;28;20503;-48
2021/06/14 05:03:19;;;;;;;6.65;2.60;;;14.70;99.90;;;;;;5016057;28;20496;-48
2021/06/14 05:05:45;;;;;;;3.55;2.00;;;14.90;99.90;;;;;;5034610;28;20034;-48
2021/06/14 05:08:12;;;;;;;4.00;1.63;;;14.80;99.90;;;;;;5030974;28;20565;-48
2021/06/14 05:10:39;;;;;;;9.18;3.00;;;14.60;99.90;;;;;;5034414;28;20041;-47
2021/06/14 05:13:05;;;;;;;5.63;2.45;;;14.80;99.90;;;;;;5034395;28;20131;-48
2021/06/14 05:15:31;;;;;;;5.20;2.42;;;14.90;99.90;;;;;;5031486;28;20501;-47
2021/06/14 05:17:57;;;;;;;7.82;2.95;;;14.90;99.90;;;;;;5033035;28;20124;-49
2021/06/14 05:20:23;;;;;;;9.65;2.40;;;15.00;99.90;;;;;;5006658;28;20176;-48
2021/06/14 05:22:48;;;;;;;6.07;2.50;;;15.00;99.90;;;;;;5002660;28;20034;-48
2021/06/14 05:25:15;;;;;;;7.93;2.60;;;15.00;99.90;;;;;;5016437;28;20115;-48
2021/06/14 05:27:41;;;;;;;8.90;3.72;;;15.00;99.90;;;;;;5031004;28;20065;-47
2021/06/14 05:30:07;;;;;;;11.15;3.67;;;15.10;99.90;;;;;;4982992;28;20084;-47
2021/06/14 05:32:33;;;;;;;8.05;3.47;;;15.00;99.90;;;;;;4999165;28;20056;-48
2021/06/14 05:34:59;;;;;;;6.93;2.72;;;15.00;99.90;;;;;;5030271;28;20532;-48
2021/06/14 05:37:25;;;;;;;9.20;3.40;;;15.10;99.90;;;;;;4998926;28;20404;-48
2021/06/14 05:39:51;;;;;;;4.55;2.30;;;15.10;99.90;;;;;;5033392;28;20052;-49
2021/06/14 05:42:16;;;;;;;6.63;2.58;;;15.10;99.90;;;;;;5014219;28;20042;-48
2021/06/14 05:44:42;;;;;;;6.10;3.05;;;15.20;99.90;;;;;;5029437;28;20029;-48
2021/06/14 05:47:08;;;;;;;6.70;3.08;;;15.40;99.90;;;;;;5005313;28;20053;-48
2021/06/14 05:49:33;;;;;;;6.00;2.80;;;15.20;99.90;;;;;;5023239;28;20030;-48
2021/06/14 05:52:00;;;;;;;6.70;2.33;;;15.20;99.90;;;;;;5023906;28;20112;-48
2021/06/14 05:54:26;;;;;;;8.15;2.67;;;15.30;99.90;;;;;;5022090;28;20049;-49
2021/06/14 05:56:52;;;;;;;6.32;2.63;;;15.30;99.90;;;;;;4956654;28;20373;-48
2021/06/14 05:59:18;;;;;;;6.03;2.42;;;15.20;99.90;;;;;;5023548;28;20026;-48
2021/06/14 06:01:43;;;;;;;6.25;2.53;;;15.10;99.90;;;;;;5022169;28;20037;-48
2021/06/14 06:04:09;;;;;;;4.93;2.30;;;15.20;99.90;;;;;;5024116;28;20473;-48
2021/06/14 06:06:35;;;;;;;3.60;2.10;;;15.10;99.90;;;;;;4987924;28;20042;-48
2021/06/14 06:09:01;;;;;;;8.63;2.80;;;15.10;99.90;;;;;;5022485;28;20079;-48
2021/06/14 06:11:27;;;;;;;7.88;3.05;;;15.30;99.90;;;;;;5016151;28;20026;-47
2021/06/14 06:13:53;;;;;;;7.35;3.13;;;15.10;99.90;;;;;;5011803;28;20045;-50
2021/06/14 06:16:19;;;;;;;6.82;2.70;;;15.30;99.90;;;;;;5031447;28;20033;-50
2021/06/14 06:18:44;;;;;;;7.88;2.80;;;15.50;99.90;;;;;;4981722;28;20033;-48
2021/06/14 06:21:10;;;;;;;6.28;3.17;;;15.30;99.90;;;;;;5029329;28;20025;-48
2021/06/14 06:23:36;;;;;;;7.78;2.70;;;15.50;99.90;;;;;;5003687;28;20052;-49
2021/06/14 06:26:02;;;;;;;5.93;2.30;;;15.30;99.90;;;;;;5030966;28;20041;-49
2021/06/14 06:28:28;;;;;;;6.43;2.75;;;15.20;99.90;;;;;;4981970;28;20045;-49
2021/06/14 06:30:54;;;;;;;6.00;2.15;;;15.40;99.90;;;;;;5033172;28;20041;-48
2021/06/14 06:33:19;;;;;;;5.03;2.50;;;15.30;99.90;;;;;;5033492;28;20026;-48
2021/06/14 06:35:45;;;;;;;6.43;3.10;;;15.20;99.90;;;;;;5004968;28;20034;-49
2021/06/14 06:38:11;;;;;;;3.90;2.50;;;15.30;99.90;;;;;;5012019;28;20034;-49
2021/06/14 06:40:37;;;;;;;6.45;2.50;;;15.30;99.90;;;;;;4994435;28;20045;-50
2021/06/14 06:43:03;;;;;;;8.40;2.50;;;15.40;99.90;;;;;;5013394;28;20402;-50
2021/06/14 06:45:29;;;;;;;7.35;2.63;;;15.40;99.90;;;;;;5013660;28;20370;-51
2021/06/14 06:47:54;;;;;;;5.55;2.70;;;15.40;99.90;;;;;;5013524;28;20026;-50
2021/06/14 06:50:21;;;;;;;7.05;2.95;;;15.40;99.90;;;;;;4946796;28;20045;-46
2021/06/14 06:52:47;;;;;;;5.13;2.35;;;15.50;99.90;;;;;;4995096;28;20034;-47
2021/06/14 06:55:15;;;;;;;6.10;2.88;;;15.60;99.90;;;;;;5013481;28;20022;-43
2021/06/14 06:57:42;;;;;;;5.72;2.55;;;15.70;99.90;;;;;;4979096;28;20125;-45
2021/06/14 07:00:20;;;;;;;4.45;2.55;;;15.80;99.90;;;;;;5013503;28;20457;-44
2021/06/14 07:02:46;;;;;;;4.40;2.50;;;15.80;99.90;;;;;;5013232;28;20561;-45
2021/06/14 07:05:13;;;;;;;8.13;2.50;;;15.90;99.90;;;;;;4994312;28;20116;-45
2021/06/14 07:07:39;;;;;;;6.68;2.50;;;;;;;;;;5013760;28;20034;-46
2021/06/14 07:10:06;;;;;;;7.35;2.80;;;15.90;99.90;;;;;;5013302;28;20049;-45
2021/06/14 07:12:33;;;;;;;5.15;2.38;;;16.00;99.90;;;;;;4962839;28;20038;-46
2021/06/14 07:15:00;;;;;;;3.38;2.70;;;16.00;99.90;;;;;;5013205;28;20061;-46
2021/06/14 07:17:26;;;;;;;5.00;2.30;;;16.10;99.90;;;;;;5013137;28;20940;-46
2021/06/14 07:19:53;;;;;;;4.70;2.47;;;16.30;99.90;;;;;;4986600;28;20041;-46
2021/06/14 07:22:19;;;;;;;6.03;2.72;;;16.50;99.90;;;;;;5026857;28;20379;-46
2021/06/14 07:24:45;;;;;;;5.00;2.33;;;16.40;99.90;;;;;;5014082;28;20038;-47
2021/06/14 07:27:11;;;;;;;4.32;2.33;;;16.10;99.90;;;;;;5021794;28;20121;-46
2021/06/14 07:29:37;;;;;;;6.13;2.70;;;16.20;99.90;;;;;;5018896;28;20050;-46
2021/06/14 07:32:03;;;;;;;6.03;2.92;;;16.10;99.90;;;;;;5024853;28;20319;-47
2021/06/14 07:34:29;;;;;;;7.28;2.50;;;16.20;99.90;;;;;;5008485;28;20037;-46
2021/06/14 07:36:56;;;;;;;4.97;2.50;;;16.20;99.90;;;;;;5031807;28;20469;-46
2021/06/14 07:39:22;;;;;;;7.57;2.85;;;16.20;99.90;;;;;;5032439;28;20030;-46
2021/06/14 07:41:48;;;;;;;6.15;2.60;;;16.10;99.90;;;;;;5032651;28;20025;-46
2021/06/14 07:44:14;;;;;;;3.50;2.20;;;16.20;99.90;;;;;;5001815;28;20042;-46
2021/06/14 07:46:40;;;;;;;8.88;5.35;;;16.30;99.90;;;;;;5031313;28;20045;-46
2021/06/14 07:49:06;;;;;;;7.20;2.67;;;16.30;99.90;;;;;;5031683;28;20029;-46
2021/06/14 07:51:32;;;;;;;6.05;2.90;;;;;;;;;;4988986;28;20034;-45
2021/06/14 07:53:58;;;;;;;5.20;2.33;;;16.70;99.90;;;;;;5024600;28;20524;-46
2021/06/14 07:56:24;;;;;;;4.57;1.80;;;16.50;99.90;;;;;;5030190;28;20065;-46
2021/06/14 07:58:50;;;;;;;4.78;1.80;;;;;;;;;;5008796;28;20030;-46
2021/06/14 08:01:16;;;;;;;5.50;2.72;;;16.50;99.90;;;;;;5026153;28;20034;-46
2021/06/14 08:03:42;;;;;;;6.13;2.30;;;16.60;99.90;;;;;;5021612;28;20030;-46
2021/06/14 08:06:08;;;;;;;5.32;2.30;;;16.80;99.90;;;;;;5006940;28;20052;-46
2021/06/14 08:08:34;;;;;;;7.10;2.72;;;16.60;99.90;;;;;;5018568;28;20109;-46
2021/06/14 08:11:01;;;;;;;7.80;2.58;;;16.70;99.90;;;;;;5020675;28;20041;-46
2021/06/14 08:13:28;;;;;;;4.15;2.25;;;16.80;99.90;;;;;;5016173;28;20409;-46
2021/06/14 08:15:54;;;;;;;7.72;2.80;;;16.70;99.90;;;;;;5024726;28;20469;-46
2021/06/14 08:25:50;;;;;;;8.18;3.15;;;16.80;99.70;;;;;;5008289;28;20057;-46
2021/06/14 08:28:16;;;;;;;6.18;2.88;;;16.90;99.90;;;;;;5024972;28;20038;-48
2021/06/14 08:30:42;;;;;;;9.30;2.42;;;16.90;99.90;;;;;;5025493;28;20041;-50
2021/06/14 08:33:08;;;;;;;4.40;2.22;;;17.00;99.90;;;;;;5023501;28;20037;-48
2021/06/14 08:35:34;;;;;;;7.13;2.75;;;17.10;99.90;;;;;;5035542;28;20029;-49
2021/06/14 08:38:00;;;;;;;9.45;2.75;;;17.20;99.90;;;;;;4971709;28;20041;-49
2021/06/14 08:40:29;;;;;;;3.28;1.55;;;17.10;99.70;;;;;;5025543;28;20021;-49
2021/06/14 08:43:02;;;;;;;3.15;2.00;;;17.20;99.30;;;;;;5025443;28;20022;-49
2021/06/14 08:45:29;;;;;;;7.15;2.85;;;;;;;;;;5025874;28;20440;-49
2021/06/14 08:47:54;;;;;;;7.20;2.75;;;17.60;99.60;;;;;;5024112;28;20025;-49
2021/06/14 08:50:21;;;;;;;5.25;2.10;;;17.70;99.60;;;;;;5023348;28;20033;-49
2021/06/14 08:52:47;;;;;;;4.68;2.50;;;17.60;99.00;;;;;;5005189;28;20038;-49
2021/06/14 08:55:14;;;;;;;6.85;2.10;;;;;;;;;;5024141;28;20029;-49
2021/06/14 08:57:40;;;;;;;4.05;2.20;;;18.00;98.90;;;;;;5020148;28;20022;-49
2021/06/14 09:00:09;;;;;;;9.48;3.38;;;18.40;99.60;;;;;;4987917;28;20037;-49
2021/06/14 09:02:35;;;;;;;5.45;2.40;;;;;;;;;;5016623;28;20037;-49
2021/06/14 09:05:01;;;;;;;4.38;2.42;;;18.90;97.80;;;;;;5034827;28;20065;-49
2021/06/14 09:07:29;;;;;;;5.20;2.92;;;18.70;97.00;;;;;;5030219;28;20079;-49
2021/06/14 09:09:55;;;;;;;6.95;2.80;;;;;;;;;;5014964;28;20025;-50
2021/06/14 09:12:21;;;;;;;3.60;2.25;;;19.60;99.90;;;;;;5014720;28;20095;-49
2021/06/14 09:14:47;;;;;;;4.07;2.58;;;19.50;99.90;;;;;;5004603;28;20469;-49
2021/06/14 09:17:15;;;;;;;106.28;22.95;;;19.70;96.50;;;;;;5016708;28;20120;-49
2021/06/14 09:19:50;;;;;;;138.93;29.60;;;;;;;;;;5014797;28;20022;-50
2021/06/14 09:22:23;;;;;;;8.30;2.63;;;20.20;96.60;;;;;;5014273;28;20056;-50
2021/06/14 09:25:01;;;;;;;3.00;1.98;;;19.90;98.60;;;;;;5010740;28;20090;-50
2021/06/14 09:27:29;;;;;;;12.70;4.10;;;19.80;98.60;;;;;;5032167;28;20495;-48
2021/06/14 09:29:54;;;;;;;5.63;2.30;;;20.30;99.90;;;;;;5033875;28;20028;-50
2021/06/14 09:32:21;;;;;;;4.85;2.10;;;;;;;;;;5023667;28;20030;-50
2021/06/14 09:34:47;;;;;;;5.75;1.88;;;;;;;;;;5018517;28;20389;-49
2021/06/14 09:37:16;;;;;;;6.72;2.47;;;20.30;99.90;;;;;;5013872;28;20105;-48
2021/06/14 09:39:47;;;;;;;4.03;1.95;;;20.60;94.00;;;;;;5014530;28;20041;-49
2021/06/14 09:42:21;;;;;;;6.13;2.00;;;20.50;93.20;;;;;;5014218;28;20037;-49
2021/06/14 09:44:49;;;;;;;3.45;1.95;;;20.90;93.70;;;;;;5014279;28;20535;-49
2021/06/14 09:47:16;;;;;;;4.40;2.15;;;;;;;;;;5014044;28;20034;-49
2021/06/14 09:50:14;;;;;;;4.68;2.10;;;21.00;93.60;;;;;;5014329;28;20116;-48
2021/06/14 09:52:40;;;;;;;9.60;3.13;;;21.10;92.80;;;;;;5013760;28;20030;-49
2021/06/14 09:55:18;;;;;;;4.53;2.30;;;20.90;93.10;;;;;;5014157;28;20026;-49
2021/06/14 09:57:44;;;;;;;7.15;2.60;;;20.90;91.90;;;;;;4996148;28;20454;-48
2021/06/14 10:00:10;;;;;;;4.80;2.10;;;20.40;92.70;;;;;;4995260;28;20045;-47
2021/06/14 10:02:36;;;;;;;4.55;2.13;;;20.40;93.30;;;;;;5011909;28;20045;-48
2021/06/14 10:05:20;;;;;;;9.88;2.00;;;20.40;92.90;;;;;;5013298;28;20425;-47
2021/06/14 10:07:47;;;;;;;3.53;1.67;;;20.40;91.80;;;;;;5013680;28;20095;-46
2021/06/14 10:10:27;;;;;;;3.95;1.50;;;20.50;92.30;;;;;;4995293;28;20366;-47
2021/06/14 10:12:55;;;;;;;4.95;1.80;;;20.40;91.50;;;;;;5014003;28;20069;-47
2021/06/14 10:15:31;;;;;;;4.35;2.03;;;20.30;91.80;;;;;;5013618;28;20056;-46
2021/06/14 10:17:57;;;;;;;6.65;2.08;;;20.60;92.10;;;;;;5014016;28;20037;-47
2021/06/14 10:20:27;;;;;;;6.78;2.25;;;20.70;91.20;;;;;;5013772;28;20044;-47
2021/06/14 10:22:55;;;;;;;5.75;2.25;;;20.60;91.80;;;;;;5013861;28;20109;-47
2021/06/14 10:25:23;;;;;;;6.30;2.50;;;20.60;92.00;;;;;;4995269;28;20393;-47
2021/06/14 10:27:49;;;;;;;7.40;2.38;;;20.60;91.40;;;;;;5013600;28;20486;-47
2021/06/14 10:30:18;;;;;;;4.10;1.73;;;20.60;92.40;;;;;;5013699;28;20109;-47
2021/06/14 10:32:45;;;;;;;3.42;1.85;;;20.20;91.30;;;;;;4995188;28;20037;-46
2021/06/14 10:35:12;;;;;;;5.30;2.00;;;19.90;91.40;;;;;;5013709;28;20030;-47
2021/06/14 10:37:48;;;;;;;4.13;1.92;;;20.00;91.80;;;;;;5012834;28;20034;-47
2021/06/14 10:40:16;;;;;;;3.70;1.80;;;20.20;92.10;;;;;;4994872;28;20680;-46
2021/06/14 10:42:45;;;;;;;3.88;1.80;;;20.30;91.80;;;;;;4995217;28;20034;-47
2021/06/14 10:45:13;;;;;;;4.25;2.00;;;20.40;91.80;;;;;;5013615;28;20068;-46
2021/06/14 10:47:40;;;;;;;6.20;2.55;;;20.40;91.00;;;;;;4995011;28;20108;-47
2021/06/14 10:50:10;;;;;;;6.85;1.70;;;20.40;91.90;;;;;;4994856;28;20092;-46
2021/06/14 10:52:40;;;;;;;2.80;1.45;;;20.40;90.20;;;;;;5013400;28;20061;-46
2021/06/14 10:55:14;;;;;;;4.43;2.03;;;20.90;90.70;;;;;;4995012;28;20034;-46
2021/06/14 10:57:43;;;;;;;2.97;1.50;;;21.20;93.40;;;;;;4995175;28;20061;-46
2021/06/14 11:00:19;;;;;;;4.35;2.08;;;;;;;;;;4963251;28;20524;-46
2021/06/14 11:02:56;;;;;;;2.53;1.48;;;;;;;;;;5013508;28;20381;-46
2021/06/14 11:05:44;;;;;;;6.47;1.88;;;22.40;99.60;;;;;;5011260;28;20508;-46
2021/06/14 11:08:11;;;;;;;8.90;2.28;;;21.90;99.90;;;;;;4995021;28;20133;-46
2021/06/14 11:10:37;;;;;;;3.80;1.90;;;22.40;91.10;;;;;;5013232;28;20045;-47
2021/06/14 11:13:14;;;;;;;5.00;1.67;;;22.70;88.80;;;;;;5013425;28;20030;-46
2021/06/14 11:15:45;;;;;;;3.17;1.70;;;22.90;90.00;;;;;;5014477;28;20429;-46
2021/06/14 11:18:22;;;;;;;4.50;1.88;;;22.60;88.80;;;;;;5017049;28;20099;-45
2021/06/14 11:20:48;;;;;;;5.45;2.10;;;22.60;89.40;;;;;;5017117;28;20084;-47
2021/06/14 11:23:26;;;;;;;5.10;2.13;;;22.70;90.20;;;;;;5016965;28;20170;-47
2021/06/14 11:25:54;;;;;;;5.97;2.20;;;22.70;90.20;;;;;;5017040;28;20045;-47
2021/06/14 11:28:35;;;;;;;4.05;1.85;;;22.50;88.60;;;;;;5016792;28;20069;-47
2021/06/14 11:31:32;;;;;;;4.85;1.65;;;22.10;90.10;;;;;;5014897;28;20034;-47
2021/06/14 11:34:02;;;;;;;3.88;1.38;;;21.70;89.80;;;;;;5016246;28;20037;-46
2021/06/14 11:36:32;;;;;;;4.40;1.83;;;22.60;90.60;;;;;;5016606;28;20022;-47
2021/06/14 11:39:10;;;;;;;8.10;2.10;;;22.90;89.80;;;;;;5015887;28;20079;-46
2021/06/14 11:41:36;;;;;;;5.50;1.80;;;23.00;88.90;;;;;;5016852;28;20350;-47
2021/06/14 11:44:20;;;;;;;12.32;2.67;;;22.70;89.40;;;;;;5014605;28;20041;-47
2021/06/14 11:46:48;;;;;;;4.85;1.50;;;22.90;90.10;;;;;;4997917;28;20054;-47
2021/06/14 11:49:14;;;;;;;3.88;1.67;;;23.00;86.30;;;;;;5016786;28;20069;-47
2021/06/14 11:51:42;;;;;;;4.10;2.10;;;23.10;88.40;;;;;;5016331;28;20071;-47
2021/06/14 11:54:08;;;;;;;2.97;1.88;;;23.40;87.50;;;;;;5016354;28;20113;-47
2021/06/14 11:56:38;;;;;;;2.92;1.60;;;23.50;87.30;;;;;;5016615;28;20040;-47
2021/06/14 11:59:06;;;;;;;5.70;1.88;;;22.80;86.30;;;;;;5016234;28;20037;-46
2021/06/14 12:01:36;;;;;;;5.13;2.20;;;23.00;89.20;;;;;;5016199;28;20116;-47
2021/06/14 12:04:06;;;;;;;6.63;1.77;;;22.90;87.80;;;;;;5016201;28;20022;-48
2021/06/14 12:06:43;;;;;;;6.20;1.73;;;23.10;87.90;;;;;;5016123;28;20492;-47
2021/06/14 12:09:11;;;;;;;6.60;2.25;;;;;;;;;;5016080;28;20060;-47
2021/06/14 12:11:37;;;;;;;7.57;2.40;;;;;;;;;;5016078;28;20508;-47
2021/06/14 12:14:29;;;;;;;6.18;2.00;;;22.80;99.90;;;;;;5015849;28;20127;-47
2021/06/14 12:17:00;;;;;;;5.65;1.85;;;;;;;;;;5014056;28;20367;-47
2021/06/14 12:19:28;;;;;;;3.55;2.10;;;23.70;94.60;;;;;;5014688;28;20060;-47
2021/06/14 12:21:56;;;;;;;3.63;1.63;;;23.90;88.10;;;;;;5015888;28;20038;-47
2021/06/14 12:24:22;;;;;;;5.70;1.83;;;23.50;87.40;;;;;;5015834;28;20482;-48
2021/06/14 12:26:48;;;;;;;4.97;2.20;;;23.40;89.50;;;;;;4995795;28;20041;-44
2021/06/14 12:29:21;;;;;;;2.83;1.52;;;;;;;;;;4997320;28;20034;-49
2021/06/14 12:31:58;;;;;;;6.05;1.80;;;22.80;87.00;;;;;;5016222;28;20044;-50
2021/06/14 12:34:28;;;;;;;4.13;1.60;;;22.60;89.00;;;;;;5021903;28;20042;-50
2021/06/14 12:37:01;;;;;;;3.17;1.63;;;22.80;87.80;;;;;;5025963;28;20485;-55
2021/06/14 12:39:27;;;;;;;2.65;1.42;;;23.20;87.00;;;;;;5005324;28;20119;-49
2021/06/14 12:41:53;;;;;;;3.53;1.75;;;;;;;;;;5006734;28;20145;-48
2021/06/14 12:44:20;;;;;;;3.25;1.33;;;24.10;88.20;;;;;;5002461;28;20033;-50
2021/06/14 12:46:45;;;;;;;6.35;2.05;;;23.80;85.40;;;;;;5022378;28;20056;-49
2021/06/14 12:49:11;;;;;;;4.63;1.60;;;22.90;86.10;;;;;;5019020;28;20489;-49
2021/06/14 12:51:42;;;;;;;3.53;1.63;;;22.50;86.80;;;;;;5013789;28;20053;-49
2021/06/14 12:54:08;;;;;;;4.13;1.80;;;22.20;88.00;;;;;;5033867;28;20706;-49
2021/06/14 12:56:33;;;;;;;4.93;1.42;;;22.50;89.70;;;;;;5025592;28;20048;-48
2021/06/14 12:58:59;;;;;;;3.83;1.35;;;23.10;90.00;;;;;;5024623;28;20385;-48
2021/06/14 13:01:25;;;;;;;4.68;1.60;;;23.20;86.50;;;;;;5001846;28;20500;-48
2021/06/14 13:03:51;;;;;;;3.67;1.90;;;23.20;86.40;;;;;;4995356;28;20030;-49
2021/06/14 13:06:17;;;;;;;3.25;1.83;;;23.10;87.20;;;;;;5013642;28;20060;-49